Time;durP1;ratioP1;P1;durP2;ratioP2;P2;SDS_P1;SDS_P2;PMS_P1;PMS_P2;Temp;Humidity;BMP_temperature;BMP_pressure;BME280_temperature;BME280_humidity;BME280_pressure;Samples;Min_cycle;Max_cycle;Signal;HPM_P1;HPM_P2
2021/11/15 00:01:27;;;;;;;22.17;14.40;;;8.60;99.90;;;;;;4991463;28;20204;-73
2021/11/15 00:03:53;;;;;;;22.70;12.90;;;8.60;99.90;;;;;;4990603;28;20212;-72
2021/11/15 00:06:18;;;;;;;23.80;13.60;;;8.60;99.90;;;;;;4991503;28;20514;-73
2021/11/15 00:08:44;;;;;;;27.37;15.53;;;8.60;99.90;;;;;;4990725;28;20211;-71
2021/11/15 00:11:10;;;;;;;22.57;13.87;;;8.60;99.90;;;;;;4991487;28;20193;-74
2021/11/15 00:13:36;;;;;;;19.03;11.80;;;8.60;99.90;;;;;;4990407;28;20179;-74
2021/11/15 00:16:01;;;;;;;23.90;13.73;;;8.60;99.90;;;;;;4991548;28;20189;-74
2021/11/15 00:18:27;;;;;;;27.03;13.80;;;8.60;99.90;;;;;;4991059;28;20416;-74
2021/11/15 00:20:53;;;;;;;27.60;13.53;;;8.70;99.90;;;;;;4990038;28;20192;-71
2021/11/15 00:23:18;;;;;;;25.10;14.70;;;8.60;99.90;;;;;;4990034;28;20251;-74
2021/11/15 00:25:44;;;;;;;25.80;14.87;;;8.60;99.90;;;;;;4986831;28;20190;-74
2021/11/15 00:28:10;;;;;;;23.23;14.30;;;8.60;99.90;;;;;;4991227;28;20424;-74
2021/11/15 00:30:35;;;;;;;26.97;12.53;;;8.60;99.90;;;;;;4991051;28;20221;-71
2021/11/15 00:33:01;;;;;;;23.90;12.40;;;8.60;99.90;;;;;;4989883;28;20197;-73
2021/11/15 00:35:26;;;;;;;26.07;13.93;;;8.60;99.90;;;;;;4990744;28;20208;-74
2021/11/15 00:37:52;;;;;;;25.80;13.03;;;8.60;99.90;;;;;;4991150;28;20173;-74
2021/11/15 00:40:19;;;;;;;30.13;15.23;;;8.50;99.90;;;;;;4991004;28;20188;-74
2021/11/15 00:42:45;;;;;;;24.70;14.53;;;8.50;99.90;;;;;;4990322;28;20197;-72
2021/11/15 00:45:15;;;;;;;22.50;13.33;;;8.50;99.90;;;;;;4990896;28;20416;-73
2021/11/15 00:47:40;;;;;;;24.23;13.33;;;8.50;99.90;;;;;;4990647;28;20413;-74
2021/11/15 00:50:09;;;;;;;29.00;13.20;;;8.50;99.90;;;;;;4990592;28;20838;-74
2021/11/15 00:52:34;;;;;;;29.50;15.10;;;8.50;99.90;;;;;;4990241;28;20287;-74
2021/11/15 00:55:00;;;;;;;26.17;15.30;;;8.50;99.90;;;;;;4990514;28;20454;-74
2021/11/15 00:57:26;;;;;;;23.63;12.23;;;8.50;99.90;;;;;;4990683;28;20241;-74
2021/11/15 00:59:51;;;;;;;27.80;13.93;;;8.40;99.90;;;;;;4990718;28;20184;-74
2021/11/15 05:31:34;;;;;;;19.43;11.60;;;7.70;99.90;;;;;;5645665;23;20508;-71
2021/11/15 05:34:02;;;;;;;20.00;10.23;;;7.70;99.90;;;;;;4951841;28;20441;-74
2021/11/15 05:36:27;;;;;;;25.17;11.10;;;7.70;99.90;;;;;;4955379;28;20433;-74
2021/11/15 05:38:53;;;;;;;24.37;10.70;;;7.70;99.90;;;;;;4954778;29;20922;-74
2021/11/15 05:41:18;;;;;;;12.53;9.20;;;7.70;99.90;;;;;;4955360;28;20264;-74
2021/11/15 05:43:44;;;;;;;14.30;8.90;;;7.70;99.90;;;;;;4954596;28;20185;-72
2021/11/15 05:46:10;;;;;;;18.07;9.97;;;7.70;99.90;;;;;;4955396;29;20213;-73
2021/11/15 05:48:35;;;;;;;18.50;10.17;;;7.70;99.90;;;;;;4955374;29;20419;-74
2021/11/15 05:51:01;;;;;;;16.00;9.57;;;7.60;99.90;;;;;;4954746;28;20239;-73
2021/11/15 05:53:27;;;;;;;14.93;9.17;;;7.60;99.90;;;;;;4954522;28;20180;-72
2021/11/15 05:55:52;;;;;;;20.83;11.43;;;7.60;99.90;;;;;;4955106;29;20193;-73
2021/11/15 05:58:18;;;;;;;17.80;9.37;;;7.60;99.90;;;;;;4955067;28;20593;-74
2021/11/15 06:00:44;;;;;;;19.90;9.97;;;7.60;99.90;;;;;;4955110;28;20188;-70
2021/11/15 06:03:09;;;;;;;16.70;9.70;;;7.60;99.90;;;;;;4953770;29;20178;-73
2021/11/15 06:05:36;;;;;;;13.70;8.27;;;7.60;99.90;;;;;;4953271;29;20506;-74
2021/11/15 06:08:01;;;;;;;14.73;8.00;;;7.60;99.90;;;;;;4955009;29;20533;-72
2021/11/15 06:10:27;;;;;;;12.00;9.30;;;7.60;99.90;;;;;;4954650;28;20493;-70
2021/11/15 06:12:52;;;;;;;15.60;8.90;;;7.60;99.90;;;;;;4954361;28;20184;-74
2021/11/15 06:15:21;;;;;;;19.20;9.63;;;7.60;99.90;;;;;;4954062;28;20216;-73
2021/11/15 06:17:47;;;;;;;15.20;8.70;;;7.60;99.90;;;;;;4953389;29;20180;-72
2021/11/15 06:20:14;;;;;;;16.60;10.00;;;7.60;99.90;;;;;;4954729;28;20434;-73
2021/11/15 06:22:40;;;;;;;15.90;9.10;;;7.60;99.90;;;;;;4953512;28;20201;-74
2021/11/15 06:25:07;;;;;;;15.27;9.23;;;7.60;99.90;;;;;;4953320;28;20431;-74
2021/11/15 06:27:33;;;;;;;14.33;9.10;;;7.60;99.90;;;;;;4955492;28;20944;-71
2021/11/15 06:29:59;;;;;;;15.03;10.00;;;7.60;99.90;;;;;;4955632;29;20465;-73
2021/11/15 06:32:24;;;;;;;17.90;11.33;;;7.70;99.90;;;;;;4954656;28;20232;-72
2021/11/15 06:34:50;;;;;;;16.63;9.20;;;7.70;99.90;;;;;;4955703;28;20184;-72
2021/11/15 06:37:16;;;;;;;16.20;9.80;;;7.80;99.90;;;;;;4955956;28;20184;-73
2021/11/15 06:39:41;;;;;;;19.70;9.90;;;7.80;99.90;;;;;;4955640;29;20188;-72
2021/11/15 06:42:08;;;;;;;15.97;9.53;;;7.80;99.90;;;;;;4954773;28;20454;-71
2021/11/15 06:44:34;;;;;;;17.60;7.90;;;7.70;99.90;;;;;;4955463;28;20418;-71
2021/11/15 06:47:00;;;;;;;17.50;8.87;;;7.70;99.90;;;;;;4955300;29;20205;-72
2021/11/15 06:49:26;;;;;;;19.00;9.90;;;7.70;99.90;;;;;;4955010;29;20880;-71
2021/11/15 06:51:52;;;;;;;16.47;10.10;;;7.60;99.90;;;;;;4955208;28;20233;-73
2021/11/15 06:54:18;;;;;;;17.03;8.90;;;7.60;99.90;;;;;;4955044;28;20422;-73
2021/11/15 06:56:44;;;;;;;15.93;9.30;;;7.60;99.90;;;;;;4955172;29;20883;-72
2021/11/15 06:59:10;;;;;;;16.47;9.93;;;7.60;99.90;;;;;;4954933;29;20191;-73
2021/11/15 07:01:37;;;;;;;14.90;9.17;;;7.60;99.90;;;;;;4955183;28;20449;-73
2021/11/15 07:04:08;;;;;;;17.43;10.50;;;7.60;99.90;;;;;;4954657;28;20421;-73
2021/11/15 07:06:35;;;;;;;17.13;10.00;;;7.60;99.90;;;;;;4955329;28;20421;-73
2021/11/15 07:09:03;;;;;;;18.53;9.73;;;7.60;99.90;;;;;;4954848;28;20458;-73
2021/11/15 07:11:29;;;;;;;19.10;10.13;;;7.70;99.90;;;;;;4954950;28;20529;-73
2021/11/15 07:13:55;;;;;;;16.33;9.73;;;7.70;99.90;;;;;;4954099;28;20513;-73
2021/11/15 07:16:20;;;;;;;20.47;10.13;;;7.60;99.90;;;;;;4955382;28;20226;-73
2021/11/15 07:18:51;;;;;;;15.50;9.57;;;7.60;99.90;;;;;;4954924;28;20648;-74
2021/11/15 07:21:17;;;;;;;17.30;10.63;;;7.70;99.90;;;;;;4953922;28;20217;-73
2021/11/15 07:23:43;;;;;;;16.73;9.40;;;7.70;99.90;;;;;;4954448;28;20431;-73
2021/11/15 07:26:08;;;;;;;13.07;8.43;;;7.70;99.90;;;;;;4955214;29;20453;-72
2021/11/15 07:28:33;;;;;;;18.57;9.30;;;7.70;99.90;;;;;;4955120;29;20212;-72
2021/11/15 07:30:59;;;;;;;16.93;9.10;;;7.70;99.90;;;;;;4947950;28;20221;-72
2021/11/15 07:33:26;;;;;;;17.13;10.87;;;7.70;99.90;;;;;;4952296;29;20595;-73
2021/11/15 07:35:53;;;;;;;17.13;9.77;;;7.70;99.90;;;;;;4952498;28;20174;-73
2021/11/15 07:38:19;;;;;;;14.90;10.20;;;7.70;99.90;;;;;;4953743;28;20391;-73
2021/11/15 07:40:44;;;;;;;15.80;9.40;;;7.70;99.90;;;;;;4953734;28;20427;-72
2021/11/15 07:43:10;;;;;;;17.63;10.33;;;7.80;99.90;;;;;;4953011;28;20795;-73
2021/11/15 07:45:36;;;;;;;15.73;8.50;;;7.70;99.90;;;;;;4954226;28;20194;-73
2021/11/15 07:48:02;;;;;;;19.00;10.80;;;7.70;99.90;;;;;;4954632;28;20179;-72
2021/11/15 07:50:28;;;;;;;16.90;10.60;;;7.70;99.90;;;;;;4954053;28;20742;-70
2021/11/15 07:52:53;;;;;;;21.80;11.23;;;7.70;99.90;;;;;;4953477;28;20419;-73
2021/11/15 07:55:19;;;;;;;21.17;11.47;;;7.70;99.90;;;;;;4954087;28;20420;-71
2021/11/15 07:57:45;;;;;;;18.17;9.50;;;7.60;99.90;;;;;;4953939;28;20198;-71
2021/11/15 08:00:14;;;;;;;17.77;10.07;;;7.70;99.90;;;;;;4954043;28;20197;-72
2021/11/15 08:02:41;;;;;;;16.37;9.00;;;7.70;99.90;;;;;;4952851;28;20839;-72
2021/11/15 08:05:08;;;;;;;15.90;9.40;;;7.70;99.90;;;;;;4952751;28;20795;-71
2021/11/15 08:07:34;;;;;;;19.67;10.77;;;7.70;99.90;;;;;;4952458;28;20420;-72
2021/11/15 08:09:59;;;;;;;18.10;10.07;;;7.70;99.90;;;;;;4952648;28;20522;-71
2021/11/15 08:12:37;;;;;;;18.90;9.30;;;7.70;99.90;;;;;;4952240;28;20290;-72
2021/11/15 08:15:07;;;;;;;19.50;10.13;;;7.70;99.90;;;;;;4954069;28;20185;-70
2021/11/15 08:17:33;;;;;;;21.67;9.60;;;7.70;99.90;;;;;;4954218;28;20418;-72
2021/11/15 08:19:59;;;;;;;16.33;9.53;;;7.70;99.90;;;;;;4952567;28;20415;-72
2021/11/15 08:22:24;;;;;;;15.30;9.40;;;7.70;99.90;;;;;;4951404;28;20440;-72
2021/11/15 08:25:26;;;;;;;16.73;8.70;;;7.70;99.90;;;;;;4952497;28;20434;-72
2021/11/15 08:27:55;;;;;;;16.73;9.00;;;7.80;99.90;;;;;;4952648;28;20188;-70
2021/11/15 08:30:21;;;;;;;16.80;9.13;;;7.80;99.90;;;;;;4952884;28;20462;-72
2021/11/15 08:32:47;;;;;;;16.50;8.60;;;7.80;99.90;;;;;;4952190;28;20471;-72
2021/11/15 08:35:12;;;;;;;16.40;9.80;;;7.80;99.90;;;;;;4952362;28;20474;-72
2021/11/15 08:37:57;;;;;;;16.47;9.37;;;7.80;99.90;;;;;;4952321;28;20188;-72
2021/11/15 08:40:23;;;;;;;18.03;8.77;;;7.80;99.90;;;;;;4952289;28;20203;-71
2021/11/15 08:42:49;;;;;;;18.53;9.13;;;7.80;99.90;;;;;;4951971;28;20447;-71
2021/11/15 08:45:17;;;;;;;15.93;9.00;;;7.80;99.90;;;;;;4950841;28;20181;-72
2021/11/15 08:47:42;;;;;;;19.13;9.87;;;7.80;99.90;;;;;;4949160;28;20185;-72
2021/11/15 08:50:08;;;;;;;19.27;10.90;;;7.80;99.90;;;;;;4949273;29;20474;-72
2021/11/15 08:52:33;;;;;;;16.17;9.30;;;7.80;99.90;;;;;;4948841;28;20230;-71
2021/11/15 08:54:59;;;;;;;16.60;9.00;;;7.80;99.90;;;;;;4950168;29;20174;-72
2021/11/15 08:57:27;;;;;;;20.47;10.30;;;7.80;99.90;;;;;;4949142;29;20269;-72
2021/11/15 08:59:55;;;;;;;19.00;10.23;;;7.80;99.90;;;;;;4950414;29;20203;-72
2021/11/15 09:02:20;;;;;;;17.20;9.83;;;7.80;99.90;;;;;;4948596;28;20444;-72
2021/11/15 09:04:46;;;;;;;17.40;9.90;;;7.80;99.90;;;;;;4948966;29;20416;-72
2021/11/15 09:07:12;;;;;;;16.10;10.07;;;7.80;99.90;;;;;;4949198;29;20245;-72
2021/11/15 09:09:39;;;;;;;17.00;9.20;;;7.90;99.90;;;;;;4949633;29;20292;-72
2021/11/15 09:12:08;;;;;;;16.93;10.47;;;7.90;99.90;;;;;;4946223;28;20243;-72
2021/11/15 09:14:35;;;;;;;18.53;9.90;;;7.90;99.90;;;;;;4949728;28;20511;-72
2021/11/15 09:17:00;;;;;;;19.53;9.37;;;8.00;99.90;;;;;;4949720;28;20862;-72
2021/11/15 09:19:26;;;;;;;16.20;9.50;;;7.90;99.90;;;;;;4949650;28;20518;-72
2021/11/15 09:21:54;;;;;;;16.20;10.90;;;7.90;99.90;;;;;;4949758;28;20550;-72
2021/11/15 09:24:20;;;;;;;21.20;10.03;;;7.90;99.90;;;;;;4948524;28;20181;-73
2021/11/15 09:26:47;;;;;;;16.93;9.90;;;8.00;99.90;;;;;;4947963;29;20801;-72
2021/11/15 09:29:14;;;;;;;14.33;9.00;;;7.90;99.90;;;;;;4931675;29;20468;-72
2021/11/15 09:31:39;;;;;;;22.23;11.20;;;7.90;99.90;;;;;;4946018;28;20483;-73
2021/11/15 09:34:05;;;;;;;21.57;9.93;;;7.90;99.90;;;;;;4947905;29;20506;-72
2021/11/15 09:36:31;;;;;;;17.73;10.10;;;7.90;99.90;;;;;;4948845;28;20177;-72
2021/11/15 09:38:58;;;;;;;21.10;11.40;;;7.90;99.90;;;;;;4950154;28;20187;-73
2021/11/15 09:41:25;;;;;;;15.63;9.60;;;8.00;99.90;;;;;;4951339;28;20276;-70
2021/11/15 09:43:51;;;;;;;18.00;10.03;;;8.00;99.90;;;;;;4950219;28;20422;-72
2021/11/15 09:46:21;;;;;;;21.43;10.63;;;8.00;99.90;;;;;;4948780;29;21103;-72
2021/11/15 09:48:51;;;;;;;18.83;10.93;;;8.00;99.90;;;;;;4947295;29;20429;-71
2021/11/15 09:51:18;;;;;;;20.40;11.00;;;8.00;99.90;;;;;;4946330;28;20450;-71
2021/11/15 09:53:44;;;;;;;20.10;11.20;;;7.90;99.90;;;;;;4948806;28;20516;-72
2021/11/15 09:56:14;;;;;;;21.03;10.10;;;8.00;99.90;;;;;;4949447;28;20502;-72
2021/11/15 09:58:39;;;;;;;19.20;11.10;;;8.10;99.90;;;;;;4950556;28;20420;-71
2021/11/15 10:01:06;;;;;;;18.50;11.00;;;8.10;99.90;;;;;;4952027;28;20446;-72
2021/11/15 10:03:33;;;;;;;15.90;10.40;;;8.10;99.90;;;;;;4951967;28;20935;-71
2021/11/15 10:05:59;;;;;;;20.60;10.93;;;8.10;99.90;;;;;;4952296;28;20423;-72
2021/11/15 10:08:25;;;;;;;19.50;9.90;;;8.10;99.90;;;;;;4951069;28;20519;-72
2021/11/15 10:10:55;;;;;;;22.77;11.50;;;8.00;99.90;;;;;;4952169;28;20555;-72
2021/11/15 10:13:25;;;;;;;21.03;11.37;;;8.00;99.90;;;;;;4951896;28;20662;-72
2021/11/15 10:16:00;;;;;;;20.07;10.43;;;8.10;99.90;;;;;;4952467;28;20456;-73
2021/11/15 10:18:32;;;;;;;17.87;11.23;;;8.00;99.90;;;;;;4953679;28;20537;-72
2021/11/15 10:21:00;;;;;;;22.77;11.33;;;8.10;99.90;;;;;;4952355;28;20437;-71
2021/11/15 10:23:32;;;;;;;19.83;10.13;;;8.00;99.90;;;;;;4950047;29;20517;-71
2021/11/15 10:26:00;;;;;;;20.23;10.30;;;8.00;99.90;;;;;;4951449;28;20429;-71
2021/11/15 10:28:27;;;;;;;21.93;10.57;;;8.10;99.90;;;;;;4934526;29;20442;-72
2021/11/15 10:30:53;;;;;;;20.97;11.47;;;8.00;99.90;;;;;;4949827;28;20473;-72
2021/11/15 10:33:19;;;;;;;23.37;11.97;;;8.10;99.90;;;;;;4950619;28;20424;-71
2021/11/15 10:35:48;;;;;;;26.23;12.50;;;8.10;99.90;;;;;;4951235;28;20765;-71
2021/11/15 10:38:15;;;;;;;18.00;11.13;;;8.10;99.90;;;;;;4952427;28;20188;-72
2021/11/15 10:40:40;;;;;;;22.03;11.60;;;8.10;99.90;;;;;;4949129;28;20867;-72
2021/11/15 10:43:08;;;;;;;24.83;12.50;;;8.20;99.90;;;;;;4949834;29;20425;-72
2021/11/15 10:45:36;;;;;;;21.43;11.53;;;8.20;99.90;;;;;;4950382;28;20270;-73
2021/11/15 10:48:08;;;;;;;19.40;10.87;;;8.20;99.90;;;;;;4951738;29;20416;-72
2021/11/15 10:50:53;;;;;;;15.87;11.23;;;8.30;99.90;;;;;;4953437;28;20824;-71
2021/11/15 10:53:26;;;;;;;21.40;11.53;;;8.30;99.90;;;;;;4950868;28;20464;-72
2021/11/15 10:56:14;;;;;;;18.53;11.63;;;8.30;99.90;;;;;;4951917;28;20409;-72
2021/11/15 10:58:45;;;;;;;19.77;12.40;;;8.40;99.90;;;;;;4952931;28;20463;-71
2021/11/15 11:01:11;;;;;;;20.73;11.17;;;8.40;99.90;;;;;;4951881;28;20445;-72
2021/11/15 11:03:37;;;;;;;18.47;11.30;;;8.30;99.90;;;;;;4950035;29;20451;-73
2021/11/15 11:06:09;;;;;;;20.00;12.30;;;8.30;99.90;;;;;;4950556;28;20966;-71
2021/11/15 11:08:44;;;;;;;20.10;12.20;;;8.30;99.90;;;;;;4949563;29;20532;-72
2021/11/15 11:11:12;;;;;;;24.53;11.77;;;8.30;99.90;;;;;;4946546;28;20447;-72
2021/11/15 11:13:56;;;;;;;21.77;11.80;;;8.30;99.90;;;;;;4950675;29;20874;-73
2021/11/15 11:16:43;;;;;;;18.27;10.87;;;8.30;99.90;;;;;;4951861;29;20439;-72
2021/11/15 11:19:31;;;;;;;19.33;11.37;;;8.30;99.90;;;;;;4949919;29;20422;-72
2021/11/15 11:24:38;;;;;;;19.90;12.13;;;8.30;99.90;;;;;;4949895;29;20931;-73
2021/11/15 11:27:08;;;;;;;15.20;11.07;;;8.30;99.90;;;;;;4953411;29;20416;-71
2021/11/15 11:29:38;;;;;;;24.20;12.60;;;8.20;99.90;;;;;;4951992;28;20463;-71
2021/11/15 11:32:08;;;;;;;19.50;12.83;;;8.30;99.90;;;;;;4950658;28;20967;-71
2021/11/15 11:34:35;;;;;;;19.67;11.37;;;8.30;99.90;;;;;;4951032;29;20415;-72
2021/11/15 11:37:03;;;;;;;23.17;12.10;;;8.40;99.90;;;;;;4951931;28;20410;-72
2021/11/15 11:39:30;;;;;;;17.20;11.47;;;8.30;99.90;;;;;;4952304;29;20490;-72
2021/11/15 11:41:59;;;;;;;22.37;12.63;;;8.40;99.90;;;;;;4951607;28;20476;-69
2021/11/15 11:44:27;;;;;;;20.90;13.03;;;8.40;99.90;;;;;;4950755;29;20422;-70
2021/11/15 11:46:55;;;;;;;21.37;12.80;;;8.40;99.90;;;;;;4951490;29;20427;-71
2021/11/15 11:49:25;;;;;;;18.17;11.50;;;8.40;99.90;;;;;;4951996;29;20826;-72
2021/11/15 11:51:57;;;;;;;21.80;12.33;;;8.40;99.90;;;;;;4952441;28;20429;-72
2021/11/15 11:54:27;;;;;;;19.20;11.57;;;8.40;99.90;;;;;;4950733;29;21154;-70
2021/11/15 11:57:03;;;;;;;16.70;11.00;;;8.40;99.90;;;;;;4951335;29;20413;-72
2021/11/15 11:59:30;;;;;;;21.27;12.50;;;8.40;99.90;;;;;;4951109;29;20431;-71
2021/11/15 12:02:02;;;;;;;22.67;11.63;;;8.30;99.90;;;;;;4951569;28;20211;-71
2021/11/15 12:04:28;;;;;;;22.53;12.13;;;8.30;99.90;;;;;;4951586;29;20468;-72
2021/11/15 12:06:54;;;;;;;18.97;11.03;;;8.20;99.90;;;;;;4951400;28;21399;-71
2021/11/15 12:09:22;;;;;;;15.73;10.77;;;8.30;99.90;;;;;;4951162;28;20588;-72
2021/11/15 12:12:02;;;;;;;18.40;12.60;;;8.30;99.90;;;;;;4948928;28;20742;-72
2021/11/15 12:14:37;;;;;;;18.97;12.20;;;8.30;99.90;;;;;;4948804;28;20424;-71
2021/11/15 12:17:17;;;;;;;19.53;12.03;;;8.40;99.90;;;;;;4946956;28;20453;-71
2021/11/15 12:19:49;;;;;;;21.70;12.07;;;8.40;99.90;;;;;;4948622;29;20790;-71
2021/11/15 12:22:20;;;;;;;20.50;11.30;;;8.40;99.90;;;;;;4947806;28;20951;-71
2021/11/15 12:25:16;;;;;;;23.43;12.23;;;8.30;99.90;;;;;;4948625;28;20910;-71
2021/11/15 12:27:44;;;;;;;17.70;10.53;;;8.30;99.90;;;;;;4949255;28;20425;-71
2021/11/15 12:30:12;;;;;;;19.13;12.80;;;8.30;99.90;;;;;;4951061;28;20490;-71
2021/11/15 12:32:38;;;;;;;19.93;12.60;;;8.40;99.90;;;;;;4950849;28;20589;-72
2021/11/15 12:35:04;;;;;;;19.30;12.30;;;8.40;99.90;;;;;;4949895;29;20478;-71
2021/11/15 12:37:35;;;;;;;18.50;11.17;;;8.40;99.90;;;;;;4950300;28;20438;-71
2021/11/15 12:40:02;;;;;;;17.33;11.60;;;8.30;99.90;;;;;;4947235;28;20430;-72
2021/11/15 12:42:29;;;;;;;30.03;12.10;;;8.20;99.90;;;;;;4946484;28;21072;-71
2021/11/15 12:45:15;;;;;;;22.05;13.27;;;8.20;99.90;;;;;;4949160;28;20406;-71
2021/11/15 12:47:44;;;;;;;21.90;12.40;;;8.20;99.90;;;;;;4932343;29;20237;-70
2021/11/15 12:50:16;;;;;;;19.00;11.87;;;8.30;99.90;;;;;;4949290;28;20476;-71
2021/11/15 12:52:49;;;;;;;22.30;12.63;;;8.30;99.90;;;;;;4948948;28;20445;-71
2021/11/15 12:55:17;;;;;;;21.13;12.17;;;8.30;99.90;;;;;;4951253;29;20434;-70
2021/11/15 12:58:14;;;;;;;19.40;12.47;;;8.30;99.90;;;;;;4951248;29;20421;-71
2021/11/15 13:00:39;;;;;;;22.90;13.07;;;8.30;99.90;;;;;;4949486;28;20550;-72
2021/11/15 13:03:10;;;;;;;16.67;12.23;;;8.30;99.90;;;;;;4944968;28;20908;-72
2021/11/15 13:05:41;;;;;;;15.63;11.20;;;8.30;99.90;;;;;;4950935;29;20233;-72
2021/11/15 13:08:10;;;;;;;21.97;11.83;;;8.30;99.90;;;;;;4943443;28;20430;-72
2021/11/15 13:10:41;;;;;;;19.90;13.10;;;8.30;99.90;;;;;;4950471;28;21113;-71
2021/11/15 13:13:09;;;;;;;18.27;12.43;;;8.30;99.90;;;;;;4942989;29;20409;-70
2021/11/15 13:15:35;;;;;;;19.60;13.30;;;8.30;99.90;;;;;;4950314;28;20392;-71
2021/11/15 13:18:00;;;;;;;21.17;13.30;;;8.30;99.90;;;;;;4931746;28;20388;-71
2021/11/15 13:20:26;;;;;;;23.43;14.90;;;8.20;99.90;;;;;;4930277;29;20198;-71
2021/11/15 13:22:52;;;;;;;20.90;13.73;;;8.30;99.90;;;;;;4944026;28;20581;-71
2021/11/15 13:25:19;;;;;;;24.80;15.00;;;8.30;99.90;;;;;;4931567;29;20430;-72
2021/11/15 13:27:46;;;;;;;23.43;13.67;;;8.20;99.90;;;;;;4949545;29;20185;-71
2021/11/15 13:30:22;;;;;;;26.60;16.87;;;8.30;99.90;;;;;;4949019;29;20470;-71
2021/11/15 13:32:49;;;;;;;18.50;13.07;;;8.20;99.90;;;;;;4949298;28;20491;-71
2021/11/15 13:35:17;;;;;;;21.70;14.57;;;8.30;99.90;;;;;;4952402;28;20472;-72
2021/11/15 13:37:43;;;;;;;18.97;12.17;;;8.30;99.90;;;;;;4951921;28;20420;-71
2021/11/15 13:40:10;;;;;;;25.70;15.47;;;8.30;99.90;;;;;;4951870;29;20421;-71
2021/11/15 13:42:35;;;;;;;23.63;14.43;;;8.30;99.90;;;;;;4951716;28;20436;-71
2021/11/15 13:45:02;;;;;;;22.13;14.20;;;8.30;99.90;;;;;;4933230;29;20433;-72
2021/11/15 13:47:28;;;;;;;33.87;16.30;;;8.20;99.90;;;;;;4952563;29;20273;-71
2021/11/15 13:49:53;;;;;;;26.27;14.33;;;8.20;99.90;;;;;;4951096;29;20619;-72
2021/11/15 13:52:20;;;;;;;25.23;14.37;;;8.20;99.90;;;;;;4945117;28;20209;-72
2021/11/15 13:54:48;;;;;;;23.23;14.70;;;8.20;99.90;;;;;;4953700;28;20217;-71
2021/11/15 13:57:15;;;;;;;31.17;16.10;;;8.30;99.90;;;;;;4952418;29;20425;-72
2021/11/15 13:59:41;;;;;;;28.37;17.20;;;8.20;99.90;;;;;;4952571;29;20465;-72
2021/11/15 14:02:07;;;;;;;25.70;16.23;;;8.20;99.90;;;;;;4935951;29;20484;-71
2021/11/15 14:04:33;;;;;;;23.77;15.67;;;8.20;99.90;;;;;;4953100;28;20890;-72
2021/11/15 14:06:58;;;;;;;22.80;14.10;;;8.10;99.90;;;;;;4951466;29;20417;-72
2021/11/15 14:09:24;;;;;;;25.17;14.63;;;8.10;99.90;;;;;;4935148;29;20217;-72
2021/11/15 14:11:50;;;;;;;28.40;16.20;;;8.10;99.90;;;;;;4935810;29;20230;-72
2021/11/15 14:14:17;;;;;;;27.60;16.30;;;8.10;99.90;;;;;;4949499;29;20181;-72
2021/11/15 14:16:43;;;;;;;24.60;15.50;;;8.10;99.90;;;;;;4936120;29;20273;-71
2021/11/15 14:19:09;;;;;;;29.93;15.20;;;8.10;99.90;;;;;;4952662;29;20505;-72
2021/11/15 14:21:34;;;;;;;29.33;15.60;;;8.10;99.90;;;;;;4951145;28;20212;-72
2021/11/15 14:24:00;;;;;;;25.57;17.03;;;8.10;99.90;;;;;;4950294;29;20208;-71
2021/11/15 14:26:25;;;;;;;24.70;16.17;;;8.10;99.90;;;;;;4949953;29;20182;-71
2021/11/15 14:28:51;;;;;;;29.50;16.43;;;8.10;99.90;;;;;;4952169;29;20267;-70
2021/11/15 14:31:16;;;;;;;27.27;17.23;;;8.10;99.90;;;;;;4951075;28;20249;-71
2021/11/15 14:33:43;;;;;;;32.93;16.87;;;8.00;99.90;;;;;;4950702;29;20173;-71
2021/11/15 14:36:08;;;;;;;22.00;14.83;;;8.00;99.90;;;;;;4951095;29;20193;-71
2021/11/15 14:38:34;;;;;;;26.73;15.73;;;8.00;99.90;;;;;;4950637;29;21013;-72
2021/11/15 14:41:01;;;;;;;26.73;16.40;;;8.00;99.90;;;;;;4949031;28;20762;-72
2021/11/15 14:43:27;;;;;;;25.10;15.10;;;8.10;99.90;;;;;;4950408;29;20216;-71
2021/11/15 14:45:54;;;;;;;23.40;14.97;;;8.00;99.90;;;;;;4949815;28;20416;-71
2021/11/15 14:48:22;;;;;;;25.00;14.67;;;8.00;99.90;;;;;;4949765;29;20177;-71
2021/11/15 14:50:47;;;;;;;27.43;15.60;;;8.00;99.90;;;;;;4951655;28;20441;-70
2021/11/15 14:53:13;;;;;;;19.60;13.20;;;8.00;99.90;;;;;;4950423;29;20425;-71
2021/11/15 14:55:39;;;;;;;21.77;13.43;;;8.00;99.90;;;;;;4951280;29;20190;-72
2021/11/15 14:58:04;;;;;;;23.80;15.10;;;8.00;99.90;;;;;;4952461;29;20533;-71
2021/11/15 15:00:32;;;;;;;22.10;12.70;;;8.00;99.90;;;;;;4951782;29;20514;-71
2021/11/15 15:02:58;;;;;;;20.57;13.67;;;8.00;99.90;;;;;;4952059;29;20174;-75
2021/11/15 15:05:24;;;;;;;21.37;13.20;;;8.00;99.90;;;;;;4951808;29;20937;-71
2021/11/15 15:07:50;;;;;;;22.07;12.97;;;8.00;99.90;;;;;;4951618;29;20319;-71
2021/11/15 15:10:21;;;;;;;23.83;13.10;;;7.90;99.90;;;;;;4951789;29;20200;-72
2021/11/15 15:12:51;;;;;;;23.80;14.03;;;7.90;99.90;;;;;;4950731;28;20463;-71
2021/11/15 15:15:18;;;;;;;19.50;13.93;;;7.90;99.90;;;;;;4949805;29;20429;-70
2021/11/15 15:17:46;;;;;;;21.37;12.90;;;7.90;99.90;;;;;;4950163;28;20433;-69
2021/11/15 15:20:14;;;;;;;24.07;12.80;;;7.90;99.90;;;;;;4950588;28;20462;-70
2021/11/15 15:22:40;;;;;;;28.03;13.93;;;7.90;99.90;;;;;;4950786;28;20457;-71
2021/11/15 15:25:06;;;;;;;20.77;13.27;;;7.90;99.90;;;;;;4951115;29;20521;-70
2021/11/15 15:27:32;;;;;;;19.73;13.10;;;7.90;99.90;;;;;;4951375;29;20561;-71
2021/11/15 15:29:58;;;;;;;20.70;13.30;;;7.80;99.90;;;;;;4950090;29;20214;-70
2021/11/15 15:32:23;;;;;;;20.00;12.20;;;7.80;99.90;;;;;;4950025;28;20548;-68
2021/11/15 15:34:49;;;;;;;18.27;12.07;;;7.80;99.90;;;;;;4951412;28;20917;-72
2021/11/15 15:37:15;;;;;;;18.03;11.40;;;7.80;99.90;;;;;;4950115;29;20182;-71
2021/11/15 15:39:41;;;;;;;20.97;12.80;;;7.70;99.90;;;;;;4950441;29;20727;-70
2021/11/15 15:42:07;;;;;;;25.27;13.77;;;7.70;99.90;;;;;;4949739;28;20267;-71
2021/11/15 15:44:33;;;;;;;25.77;14.40;;;7.70;99.90;;;;;;4951478;29;20185;-71
2021/11/15 15:46:59;;;;;;;23.33;13.93;;;7.70;99.90;;;;;;4950039;28;20438;-71
2021/11/15 15:49:27;;;;;;;23.73;14.77;;;7.70;99.90;;;;;;4951813;28;20578;-72
2021/11/15 15:51:54;;;;;;;21.73;14.20;;;7.70;99.90;;;;;;4950656;28;20194;-71
2021/11/15 15:54:21;;;;;;;21.13;13.97;;;7.70;99.90;;;;;;4949907;28;20931;-70
2021/11/15 15:56:47;;;;;;;29.27;16.27;;;7.70;99.90;;;;;;4950538;28;21046;-71
2021/11/15 15:59:13;;;;;;;26.97;16.30;;;7.60;99.90;;;;;;4951098;28;20511;-72
2021/11/15 16:01:39;;;;;;;25.40;15.43;;;7.60;99.90;;;;;;4950955;28;20206;-72
2021/11/15 16:04:21;;;;;;;25.00;14.93;;;7.60;99.90;;;;;;4949611;28;20242;-72
2021/11/15 16:09:33;;;;;;;25.20;16.50;;;7.60;99.90;;;;;;4949222;28;20464;-73
2021/11/15 16:14:49;;;;;;;27.80;16.23;;;7.50;99.90;;;;;;4948778;28;20451;-73
2021/11/15 16:17:39;;;;;;;26.70;17.13;;;7.60;99.90;;;;;;4947928;28;20409;-72
2021/11/15 16:20:06;;;;;;;29.97;16.90;;;7.60;99.90;;;;;;4949359;28;20787;-72
2021/11/15 16:22:32;;;;;;;25.30;17.23;;;7.50;99.90;;;;;;4948945;28;20440;-74
2021/11/15 16:24:57;;;;;;;26.23;16.30;;;7.50;99.90;;;;;;4949893;28;20423;-73
2021/11/15 16:27:23;;;;;;;27.63;17.47;;;7.50;99.90;;;;;;4949874;28;20190;-71
2021/11/15 16:29:48;;;;;;;29.63;18.10;;;7.50;99.90;;;;;;4948948;28;20298;-74
2021/11/15 16:32:14;;;;;;;27.80;16.60;;;7.40;99.90;;;;;;4948896;28;20216;-74
2021/11/15 16:34:39;;;;;;;24.83;15.27;;;7.40;99.90;;;;;;4949256;28;20263;-73
2021/11/15 16:37:05;;;;;;;25.40;16.23;;;7.40;99.90;;;;;;4949432;28;20174;-73
2021/11/15 16:39:30;;;;;;;25.13;15.40;;;7.50;99.90;;;;;;4949350;28;20221;-72
2021/11/15 16:41:56;;;;;;;30.90;15.90;;;7.50;99.90;;;;;;4949031;28;20210;-72
2021/11/15 16:44:22;;;;;;;23.80;15.97;;;7.50;99.90;;;;;;4947794;28;20499;-74
2021/11/15 16:46:51;;;;;;;25.23;16.90;;;7.50;99.90;;;;;;4947709;28;20212;-73
2021/11/15 16:49:18;;;;;;;28.93;17.07;;;7.40;99.90;;;;;;4947904;28;20221;-73
2021/11/15 16:51:44;;;;;;;30.70;18.20;;;7.40;99.90;;;;;;4948316;28;20452;-72
2021/11/15 16:54:10;;;;;;;21.90;15.10;;;7.40;99.90;;;;;;4948293;28;20421;-73
2021/11/15 16:56:36;;;;;;;25.37;17.50;;;7.40;99.90;;;;;;4947117;29;20433;-73
2021/11/15 16:59:04;;;;;;;23.90;16.67;;;7.40;99.90;;;;;;4949551;28;20409;-72
2021/11/15 17:01:29;;;;;;;31.37;18.50;;;7.40;99.90;;;;;;4948682;28;20203;-73
2021/11/15 17:03:55;;;;;;;29.80;17.30;;;7.40;99.90;;;;;;4947679;29;20416;-73
2021/11/15 17:06:21;;;;;;;25.37;15.33;;;7.40;99.90;;;;;;4949234;28;20180;-73
2021/11/15 17:08:47;;;;;;;29.93;19.07;;;7.40;99.90;;;;;;4951420;28;20421;-74
2021/11/15 17:11:17;;;;;;;26.50;16.57;;;7.40;99.90;;;;;;4952943;28;20289;-74
2021/11/15 17:13:46;;;;;;;26.07;17.70;;;7.40;99.90;;;;;;4953044;28;20413;-73
2021/11/15 17:16:15;;;;;;;33.93;17.27;;;7.40;99.90;;;;;;4952302;28;20426;-73
2021/11/15 17:18:44;;;;;;;30.37;17.67;;;7.40;99.90;;;;;;4952542;28;20835;-73